sensor_id;sensor_type;location;lat;lon;timestamp;pressure;altitude;pressure_sealevel;temperature;humidity
63779;BME280;49923;55.970;37.516;2022-07-25T00:00:34;98903.31;;;19.48;72.50
63779;BME280;49923;55.970;37.516;2022-07-25T00:03:00;98892.38;;;19.32;73.30
63779;BME280;49923;55.970;37.516;2022-07-25T00:05:26;98892.63;;;19.19;73.51
63779;BME280;49923;55.970;37.516;2022-07-25T00:07:53;98890.06;;;19.08;74.84
63779;BME280;49923;55.970;37.516;2022-07-25T00:10:19;98889.34;;;19.06;75.12
63779;BME280;49923;55.970;37.516;2022-07-25T00:12:45;98883.59;;;19.22;73.75
63779;BME280;49923;55.970;37.516;2022-07-25T00:15:12;98877.78;;;19.28;73.16
63779;BME280;49923;55.970;37.516;2022-07-25T00:17:38;98880.53;;;19.27;73.30
63779;BME280;49923;55.970;37.516;2022-07-25T00:20:05;98872.19;;;19.21;73.34
63779;BME280;49923;55.970;37.516;2022-07-25T00:22:31;98873.03;;;19.22;73.54
63779;BME280;49923;55.970;37.516;2022-07-25T00:24:58;98874.81;;;19.21;73.58
63779;BME280;49923;55.970;37.516;2022-07-25T00:27:24;98878.16;;;19.14;73.98
63779;BME280;49923;55.970;37.516;2022-07-25T00:29:50;98871.28;;;19.02;74.98
63779;BME280;49923;55.970;37.516;2022-07-25T00:32:16;98873.09;;;19.01;74.79
63779;BME280;49923;55.970;37.516;2022-07-25T00:34:42;98873.53;;;19.06;74.23
63779;BME280;49923;55.970;37.516;2022-07-25T00:37:08;98864.75;;;19.06;74.01
63779;BME280;49923;55.970;37.516;2022-07-25T00:39:34;98861.16;;;19.07;73.91
63779;BME280;49923;55.970;37.516;2022-07-25T00:42:00;98866.13;;;19.00;74.34
63779;BME280;49923;55.970;37.516;2022-07-25T00:44:28;98866.84;;;19.02;74.05
63779;BME280;49923;55.970;37.516;2022-07-25T00:46:56;98863.22;;;19.03;73.97
63779;BME280;49923;55.970;37.516;2022-07-25T00:49:22;98869.41;;;18.93;74.55
63779;BME280;49923;55.970;37.516;2022-07-25T00:51:49;98868.63;;;18.71;75.89
63779;BME280;49923;55.970;37.516;2022-07-25T00:54:15;98861.66;;;18.70;76.32
63779;BME280;49923;55.970;37.516;2022-07-25T00:56:41;98863.06;;;18.74;76.47
63779;BME280;49923;55.970;37.516;2022-07-25T00:59:08;98866.66;;;18.53;77.85
63779;BME280;49923;55.970;37.516;2022-07-25T01:01:35;98859.53;;;18.64;76.64
63779;BME280;49923;55.970;37.516;2022-07-25T01:04:02;98862.19;;;18.64;76.58
63779;BME280;49923;55.970;37.516;2022-07-25T01:06:28;98856.94;;;18.74;75.81
63779;BME280;49923;55.970;37.516;2022-07-25T01:08:54;98856.50;;;18.69;76.58
63779;BME280;49923;55.970;37.516;2022-07-25T01:11:21;98860.19;;;18.57;77.21
63779;BME280;49923;55.970;37.516;2022-07-25T01:13:48;98865.22;;;18.60;76.77
63779;BME280;49923;55.970;37.516;2022-07-25T01:16:13;98864.84;;;18.53;77.28
63779;BME280;49923;55.970;37.516;2022-07-25T01:18:40;98862.75;;;18.68;76.47
63779;BME280;49923;55.970;37.516;2022-07-25T01:21:06;98868.50;;;18.73;76.27
63779;BME280;49923;55.970;37.516;2022-07-25T01:23:33;98872.41;;;18.78;75.99
63779;BME280;49923;55.970;37.516;2022-07-25T01:25:58;98865.91;;;18.83;76.06
63779;BME280;49923;55.970;37.516;2022-07-25T01:28:24;98866.03;;;18.81;76.15
63779;BME280;49923;55.970;37.516;2022-07-25T01:30:50;98874.13;;;18.89;75.83
63779;BME280;49923;55.970;37.516;2022-07-25T01:33:17;98871.50;;;18.89;75.79
63779;BME280;49923;55.970;37.516;2022-07-25T01:35:44;98875.28;;;18.96;76.21
63779;BME280;49923;55.970;37.516;2022-07-25T01:38:11;98879.72;;;18.96;76.53
63779;BME280;49923;55.970;37.516;2022-07-25T01:40:38;98877.34;;;18.93;77.00
63779;BME280;49923;55.970;37.516;2022-07-25T01:43:04;98881.25;;;18.98;76.76
63779;BME280;49923;55.970;37.516;2022-07-25T01:45:30;98889.88;;;19.00;76.62
63779;BME280;49923;55.970;37.516;2022-07-25T01:47:56;98885.88;;;19.06;76.49
63779;BME280;49923;55.970;37.516;2022-07-25T01:50:23;98884.09;;;19.16;76.02
63779;BME280;49923;55.970;37.516;2022-07-25T01:52:49;98885.78;;;19.17;76.05
63779;BME280;49923;55.970;37.516;2022-07-25T01:55:15;98884.38;;;19.13;76.66
63779;BME280;49923;55.970;37.516;2022-07-25T01:57:41;98883.78;;;19.09;76.65
63779;BME280;49923;55.970;37.516;2022-07-25T02:00:10;98883.72;;;19.20;76.15
63779;BME280;49923;55.970;37.516;2022-07-25T02:02:36;98886.22;;;19.22;75.96
63779;BME280;49923;55.970;37.516;2022-07-25T02:05:02;98884.28;;;19.24;75.87
63779;BME280;49923;55.970;37.516;2022-07-25T02:07:28;98880.38;;;19.18;76.20
63779;BME280;49923;55.970;37.516;2022-07-25T02:09:54;98875.09;;;19.18;76.59
63779;BME280;49923;55.970;37.516;2022-07-25T02:12:20;98882.22;;;19.28;76.37
63779;BME280;49923;55.970;37.516;2022-07-25T02:14:46;98882.50;;;19.25;76.43
63779;BME280;49923;55.970;37.516;2022-07-25T02:17:12;98869.53;;;19.21;76.55
63779;BME280;49923;55.970;37.516;2022-07-25T02:19:38;98869.06;;;19.37;75.73
63779;BME280;49923;55.970;37.516;2022-07-25T02:22:04;98868.53;;;19.43;75.71
63779;BME280;49923;55.970;37.516;2022-07-25T02:24:30;98865.81;;;19.54;75.33
63779;BME280;49923;55.970;37.516;2022-07-25T02:26:57;98865.09;;;19.52;75.67
63779;BME280;49923;55.970;37.516;2022-07-25T02:29:23;98870.81;;;19.57;75.54
63779;BME280;49923;55.970;37.516;2022-07-25T02:31:49;98872.34;;;19.60;75.56
63779;BME280;49923;55.970;37.516;2022-07-25T02:34:16;98872.91;;;19.63;75.37
63779;BME280;49923;55.970;37.516;2022-07-25T02:36:42;98866.25;;;19.69;75.25
63779;BME280;49923;55.970;37.516;2022-07-25T02:39:08;98871.69;;;19.77;75.08
63779;BME280;49923;55.970;37.516;2022-07-25T02:41:34;98878.66;;;19.78;75.35
63779;BME280;49923;55.970;37.516;2022-07-25T02:44:00;98879.63;;;19.87;74.72
63779;BME280;49923;55.970;37.516;2022-07-25T02:46:26;98877.69;;;19.98;74.48
63779;BME280;49923;55.970;37.516;2022-07-25T02:48:52;98884.09;;;20.06;73.90
63779;BME280;49923;55.970;37.516;2022-07-25T02:51:18;98875.06;;;20.08;74.32
63779;BME280;49923;55.970;37.516;2022-07-25T02:53:44;98868.25;;;20.15;74.22
63779;BME280;49923;55.970;37.516;2022-07-25T02:56:10;98869.34;;;20.22;73.50
63779;BME280;49923;55.970;37.516;2022-07-25T02:58:36;98867.56;;;20.23;73.62
63779;BME280;49923;55.970;37.516;2022-07-25T03:01:02;98868.00;;;20.37;73.34
63779;BME280;49923;55.970;37.516;2022-07-25T03:03:28;98865.34;;;20.47;73.09
63779;BME280;49923;55.970;37.516;2022-07-25T03:05:54;98869.78;;;20.47;72.86
63779;BME280;49923;55.970;37.516;2022-07-25T03:08:20;98869.94;;;20.55;72.93
63779;BME280;49923;55.970;37.516;2022-07-25T03:10:46;98864.03;;;20.70;72.43
63779;BME280;49923;55.970;37.516;2022-07-25T03:13:12;98867.09;;;20.75;72.10
63779;BME280;49923;55.970;37.516;2022-07-25T03:15:38;98865.81;;;20.79;72.04
63779;BME280;49923;55.970;37.516;2022-07-25T03:18:04;98863.03;;;20.91;71.91
63779;BME280;49923;55.970;37.516;2022-07-25T03:20:30;98866.63;;;20.99;71.82
63779;BME280;49923;55.970;37.516;2022-07-25T03:22:55;98871.91;;;20.99;71.63
63779;BME280;49923;55.970;37.516;2022-07-25T03:25:21;98869.81;;;21.03;71.43
63779;BME280;49923;55.970;37.516;2022-07-25T03:27:48;98865.34;;;21.03;71.38
63779;BME280;49923;55.970;37.516;2022-07-25T03:30:14;98867.41;;;21.09;71.15
63779;BME280;49923;55.970;37.516;2022-07-25T03:32:40;98875.91;;;21.22;71.18
63779;BME280;49923;55.970;37.516;2022-07-25T03:35:06;98869.31;;;21.27;70.92
63779;BME280;49923;55.970;37.516;2022-07-25T03:37:32;98870.31;;;21.26;70.30
63779;BME280;49923;55.970;37.516;2022-07-25T03:39:58;98866.25;;;21.31;70.63
63779;BME280;49923;55.970;37.516;2022-07-25T03:42:27;98863.03;;;21.28;70.50
63779;BME280;49923;55.970;37.516;2022-07-25T03:44:53;98862.03;;;21.38;69.86
63779;BME280;49923;55.970;37.516;2022-07-25T03:47:19;98856.38;;;21.23;70.68
63779;BME280;49923;55.970;37.516;2022-07-25T03:49:45;98858.00;;;21.34;69.86
63779;BME280;49923;55.970;37.516;2022-07-25T03:52:11;98859.53;;;21.37;69.82
63779;BME280;49923;55.970;37.516;2022-07-25T03:54:37;98860.84;;;21.50;69.37
63779;BME280;49923;55.970;37.516;2022-07-25T03:57:03;98857.69;;;21.64;69.17
63779;BME280;49923;55.970;37.516;2022-07-25T03:59:30;98861.88;;;21.67;69.11
63779;BME280;49923;55.970;37.516;2022-07-25T04:01:56;98867.56;;;21.72;69.03
63779;BME280;49923;55.970;37.516;2022-07-25T04:04:22;98862.06;;;21.56;68.99
63779;BME280;49923;55.970;37.516;2022-07-25T04:06:47;98872.41;;;21.77;68.72
63779;BME280;49923;55.970;37.516;2022-07-25T04:09:14;98865.25;;;21.59;69.58
63779;BME280;49923;55.970;37.516;2022-07-25T04:11:40;98866.50;;;21.83;68.82
63779;BME280;49923;55.970;37.516;2022-07-25T04:14:07;98872.69;;;21.74;69.04
63779;BME280;49923;55.970;37.516;2022-07-25T04:16:33;98866.63;;;21.63;69.25
63779;BME280;49923;55.970;37.516;2022-07-25T04:18:59;98863.09;;;21.73;69.43
63779;BME280;49923;55.970;37.516;2022-07-25T04:21:25;98866.19;;;21.86;69.24
63779;BME280;49923;55.970;37.516;2022-07-25T04:23:51;98868.94;;;21.94;69.42
63779;BME280;49923;55.970;37.516;2022-07-25T04:26:18;98876.28;;;21.82;70.11
63779;BME280;49923;55.970;37.516;2022-07-25T04:28:44;98875.06;;;21.94;69.71
63779;BME280;49923;55.970;37.516;2022-07-25T04:31:11;98867.81;;;21.79;69.97
63779;BME280;49923;55.970;37.516;2022-07-25T04:33:37;98863.97;;;21.91;69.42
63779;BME280;49923;55.970;37.516;2022-07-25T04:36:04;98867.91;;;21.59;71.19
63779;BME280;49923;55.970;37.516;2022-07-25T04:38:30;98869.03;;;21.84;70.29
63779;BME280;49923;55.970;37.516;2022-07-25T04:40:57;98861.34;;;21.81;70.92
63779;BME280;49923;55.970;37.516;2022-07-25T04:43:23;98866.75;;;21.62;71.76
63779;BME280;49923;55.970;37.516;2022-07-25T04:45:49;98866.44;;;21.92;71.08
63779;BME280;49923;55.970;37.516;2022-07-25T04:48:14;98862.59;;;22.04;70.11
63779;BME280;49923;55.970;37.516;2022-07-25T04:50:41;98863.31;;;22.07;69.22
63779;BME280;49923;55.970;37.516;2022-07-25T04:53:07;98856.84;;;22.27;68.79
63779;BME280;49923;55.970;37.516;2022-07-25T04:55:33;98855.81;;;21.92;70.39
63779;BME280;49923;55.970;37.516;2022-07-25T04:57:59;98850.91;;;22.33;68.89
63779;BME280;49923;55.970;37.516;2022-07-25T05:00:25;98844.38;;;22.19;69.47
63779;BME280;49923;55.970;37.516;2022-07-25T05:02:51;98851.47;;;22.36;68.66
63779;BME280;49923;55.970;37.516;2022-07-25T05:05:18;98854.97;;;22.19;69.93
63779;BME280;49923;55.970;37.516;2022-07-25T05:07:45;98841.47;;;22.56;68.29
63779;BME280;49923;55.970;37.516;2022-07-25T05:10:11;98849.88;;;22.43;69.22
63779;BME280;49923;55.970;37.516;2022-07-25T05:12:37;98851.94;;;22.32;69.26
63779;BME280;49923;55.970;37.516;2022-07-25T05:15:04;98854.25;;;22.35;68.71
63779;BME280;49923;55.970;37.516;2022-07-25T05:17:31;98856.00;;;22.44;68.27
63779;BME280;49923;55.970;37.516;2022-07-25T05:19:57;98852.94;;;22.57;67.68
63779;BME280;49923;55.970;37.516;2022-07-25T05:22:24;98849.78;;;22.35;68.24
63779;BME280;49923;55.970;37.516;2022-07-25T05:24:50;98844.34;;;22.63;67.41
63779;BME280;49923;55.970;37.516;2022-07-25T05:27:15;98851.28;;;22.73;67.41
63779;BME280;49923;55.970;37.516;2022-07-25T05:29:42;98848.81;;;22.80;66.64
63779;BME280;49923;55.970;37.516;2022-07-25T05:32:08;98854.19;;;22.88;66.40
63779;BME280;49923;55.970;37.516;2022-07-25T05:34:34;98853.88;;;22.91;66.47
63779;BME280;49923;55.970;37.516;2022-07-25T05:37:00;98859.00;;;22.67;67.62
63779;BME280;49923;55.970;37.516;2022-07-25T05:39:26;98854.69;;;22.92;66.95
63779;BME280;49923;55.970;37.516;2022-07-25T05:41:52;98852.72;;;22.94;66.63
63779;BME280;49923;55.970;37.516;2022-07-25T05:44:18;98853.81;;;23.09;66.08
63779;BME280;49923;55.970;37.516;2022-07-25T05:46:44;98848.91;;;23.30;65.51
63779;BME280;49923;55.970;37.516;2022-07-25T05:49:10;98853.91;;;23.33;65.37
63779;BME280;49923;55.970;37.516;2022-07-25T05:51:35;98850.78;;;23.80;63.82
63779;BME280;49923;55.970;37.516;2022-07-25T05:54:01;98844.63;;;23.79;64.37
63779;BME280;49923;55.970;37.516;2022-07-25T05:56:27;98850.72;;;23.63;64.76
63779;BME280;49923;55.970;37.516;2022-07-25T05:58:54;98850.91;;;23.62;64.98
63779;BME280;49923;55.970;37.516;2022-07-25T06:01:21;98855.28;;;23.87;64.32
63779;BME280;49923;55.970;37.516;2022-07-25T06:03:47;98855.59;;;23.76;64.30
63779;BME280;49923;55.970;37.516;2022-07-25T06:06:12;98854.59;;;23.77;64.63
63779;BME280;49923;55.970;37.516;2022-07-25T06:08:39;98845.00;;;24.00;64.04
63779;BME280;49923;55.970;37.516;2022-07-25T06:11:05;98843.50;;;24.06;64.30
63779;BME280;49923;55.970;37.516;2022-07-25T06:13:33;98842.91;;;24.20;63.92
63779;BME280;49923;55.970;37.516;2022-07-25T06:15:59;98839.06;;;24.31;63.24
63779;BME280;49923;55.970;37.516;2022-07-25T06:18:26;98846.72;;;24.50;62.93
63779;BME280;49923;55.970;37.516;2022-07-25T06:20:52;98835.72;;;24.29;61.87
63779;BME280;49923;55.970;37.516;2022-07-25T06:23:18;98846.44;;;23.71;63.29
63779;BME280;49923;55.970;37.516;2022-07-25T06:25:45;98845.28;;;23.73;63.56
63779;BME280;49923;55.970;37.516;2022-07-25T06:28:12;98845.28;;;23.81;64.09
63779;BME280;49923;55.970;37.516;2022-07-25T06:30:42;98849.28;;;23.77;63.36
63779;BME280;49923;55.970;37.516;2022-07-25T06:33:09;98844.78;;;23.78;62.79
63779;BME280;49923;55.970;37.516;2022-07-25T06:35:36;98835.69;;;24.04;63.15
63779;BME280;49923;55.970;37.516;2022-07-25T06:38:02;98827.91;;;24.35;62.62
63779;BME280;49923;55.970;37.516;2022-07-25T06:40:29;98845.97;;;23.99;62.85
63779;BME280;49923;55.970;37.516;2022-07-25T06:42:55;98833.72;;;24.39;61.97
63779;BME280;49923;55.970;37.516;2022-07-25T06:45:22;98831.22;;;24.54;61.43
63779;BME280;49923;55.970;37.516;2022-07-25T06:47:48;98839.53;;;24.51;60.16
63779;BME280;49923;55.970;37.516;2022-07-25T06:50:16;98833.38;;;24.01;60.75
63779;BME280;49923;55.970;37.516;2022-07-25T06:52:46;98837.06;;;24.49;61.36
63779;BME280;49923;55.970;37.516;2022-07-25T06:55:13;98835.03;;;24.92;59.87
63779;BME280;49923;55.970;37.516;2022-07-25T06:57:40;98835.53;;;24.06;59.58
63779;BME280;49923;55.970;37.516;2022-07-25T07:00:08;98832.38;;;24.67;60.89
63779;BME280;49923;55.970;37.516;2022-07-25T07:02:48;98835.84;;;24.76;58.73
63779;BME280;49923;55.970;37.516;2022-07-25T07:05:15;98835.13;;;25.14;60.00
63779;BME280;49923;55.970;37.516;2022-07-25T07:07:41;98833.25;;;25.23;58.89
63779;BME280;49923;55.970;37.516;2022-07-25T07:10:07;98831.50;;;24.99;57.65
63779;BME280;49923;55.970;37.516;2022-07-25T07:12:34;98829.41;;;25.25;58.58
63779;BME280;49923;55.970;37.516;2022-07-25T07:15:00;98832.81;;;25.50;58.51
63779;BME280;49923;55.970;37.516;2022-07-25T07:17:25;98831.63;;;25.61;58.11
63779;BME280;49923;55.970;37.516;2022-07-25T07:19:51;98825.03;;;25.72;57.99
63779;BME280;49923;55.970;37.516;2022-07-25T07:22:17;98826.47;;;25.82;58.04
63779;BME280;49923;55.970;37.516;2022-07-25T07:24:43;98841.53;;;24.57;56.85
63779;BME280;49923;55.970;37.516;2022-07-25T07:27:09;98832.41;;;25.22;57.38
63779;BME280;49923;55.970;37.516;2022-07-25T07:29:35;98833.38;;;25.38;58.19
63779;BME280;49923;55.970;37.516;2022-07-25T07:32:01;98836.59;;;25.87;57.00
63779;BME280;49923;55.970;37.516;2022-07-25T07:34:27;98837.09;;;25.67;56.21
63779;BME280;49923;55.970;37.516;2022-07-25T07:36:53;98835.00;;;25.78;57.28
63779;BME280;49923;55.970;37.516;2022-07-25T07:39:19;98833.34;;;25.77;57.12
63779;BME280;49923;55.970;37.516;2022-07-25T07:41:44;98836.84;;;26.23;55.74
63779;BME280;49923;55.970;37.516;2022-07-25T07:44:10;98838.75;;;26.97;54.42
63779;BME280;49923;55.970;37.516;2022-07-25T07:46:36;98838.28;;;26.56;54.79
63779;BME280;49923;55.970;37.516;2022-07-25T07:49:02;98833.56;;;26.43;55.45
63779;BME280;49923;55.970;37.516;2022-07-25T07:51:28;98827.28;;;26.51;56.08
63779;BME280;49923;55.970;37.516;2022-07-25T07:53:54;98837.16;;;26.28;56.44
63779;BME280;49923;55.970;37.516;2022-07-25T07:56:38;98836.50;;;26.48;56.25
63779;BME280;49923;55.970;37.516;2022-07-25T07:59:04;98834.50;;;27.03;54.78
63779;BME280;49923;55.970;37.516;2022-07-25T08:01:30;98837.00;;;26.67;52.36
63779;BME280;49923;55.970;37.516;2022-07-25T08:03:56;98832.78;;;26.87;54.35
63779;BME280;49923;55.970;37.516;2022-07-25T08:06:22;98838.88;;;27.40;53.71
63779;BME280;49923;55.970;37.516;2022-07-25T08:08:48;98828.16;;;26.81;53.37
63779;BME280;49923;55.970;37.516;2022-07-25T08:11:14;98833.50;;;26.66;55.03
63779;BME280;49923;55.970;37.516;2022-07-25T08:13:40;98830.56;;;26.61;52.10
63779;BME280;49923;55.970;37.516;2022-07-25T08:16:06;98841.09;;;25.63;53.39
63779;BME280;49923;55.970;37.516;2022-07-25T08:18:32;98835.03;;;25.39;54.48
63779;BME280;49923;55.970;37.516;2022-07-25T08:20:59;98833.78;;;26.57;54.93
63779;BME280;49923;55.970;37.516;2022-07-25T08:23:27;98831.91;;;26.42;52.63
63779;BME280;49923;55.970;37.516;2022-07-25T08:25:53;98826.78;;;26.70;53.61
63779;BME280;49923;55.970;37.516;2022-07-25T08:28:19;98830.13;;;26.35;54.59
63779;BME280;49923;55.970;37.516;2022-07-25T08:30:45;98835.03;;;27.13;52.88
63779;BME280;49923;55.970;37.516;2022-07-25T08:33:12;98841.03;;;27.15;52.94
63779;BME280;49923;55.970;37.516;2022-07-25T08:35:45;98842.75;;;27.66;51.47
63779;BME280;49923;55.970;37.516;2022-07-25T08:38:12;98844.25;;;27.54;52.15
63779;BME280;49923;55.970;37.516;2022-07-25T08:40:38;98844.03;;;27.70;51.99
63779;BME280;49923;55.970;37.516;2022-07-25T08:43:04;98843.59;;;27.38;53.24
63779;BME280;49923;55.970;37.516;2022-07-25T08:45:31;98838.78;;;27.48;52.64
63779;BME280;49923;55.970;37.516;2022-07-25T08:47:58;98843.19;;;27.70;52.19
63779;BME280;49923;55.970;37.516;2022-07-25T08:50:27;98837.81;;;27.19;52.88
63779;BME280;49923;55.970;37.516;2022-07-25T08:52:53;98843.38;;;26.66;54.50
63779;BME280;49923;55.970;37.516;2022-07-25T08:55:22;98844.88;;;26.00;53.34
63779;BME280;49923;55.970;37.516;2022-07-25T08:57:50;98837.88;;;25.99;55.31
63779;BME280;49923;55.970;37.516;2022-07-25T09:00:28;98835.84;;;25.78;53.52
63779;BME280;49923;55.970;37.516;2022-07-25T09:03:03;98845.88;;;25.99;51.86
63779;BME280;49923;55.970;37.516;2022-07-25T09:05:34;98846.59;;;25.54;50.74
63779;BME280;49923;55.970;37.516;2022-07-25T09:08:26;98837.41;;;25.95;49.75
63779;BME280;49923;55.970;37.516;2022-07-25T09:10:52;98838.44;;;26.92;49.64
63779;BME280;49923;55.970;37.516;2022-07-25T09:13:19;98841.25;;;26.61;50.76
63779;BME280;49923;55.970;37.516;2022-07-25T09:15:52;98839.97;;;26.72;52.67
63779;BME280;49923;55.970;37.516;2022-07-25T09:18:22;98839.13;;;26.57;53.10
63779;BME280;49923;55.970;37.516;2022-07-25T09:20:51;98844.84;;;26.31;53.23
63779;BME280;49923;55.970;37.516;2022-07-25T09:23:36;98848.84;;;25.42;55.72
63779;BME280;49923;55.970;37.516;2022-07-25T09:28:43;98838.78;;;26.37;53.49
63779;BME280;49923;55.970;37.516;2022-07-25T09:31:10;98837.94;;;26.36;53.09
63779;BME280;49923;55.970;37.516;2022-07-25T09:33:51;98839.09;;;26.94;51.99
63779;BME280;49923;55.970;37.516;2022-07-25T09:36:18;98831.34;;;26.99;50.98
63779;BME280;49923;55.970;37.516;2022-07-25T09:38:54;98836.41;;;27.23;50.61
63779;BME280;49923;55.970;37.516;2022-07-25T09:41:21;98839.50;;;27.71;50.82
63779;BME280;49923;55.970;37.516;2022-07-25T09:43:47;98848.09;;;27.66;50.08
63779;BME280;49923;55.970;37.516;2022-07-25T09:46:13;98847.06;;;26.79;51.82
63779;BME280;49923;55.970;37.516;2022-07-25T09:48:43;98849.78;;;27.23;49.89
63779;BME280;49923;55.970;37.516;2022-07-25T09:51:09;98849.50;;;27.18;49.69
63779;BME280;49923;55.970;37.516;2022-07-25T09:53:35;98856.41;;;27.27;49.74
63779;BME280;49923;55.970;37.516;2022-07-25T09:56:01;98849.13;;;27.36;49.81
63779;BME280;49923;55.970;37.516;2022-07-25T09:58:28;98845.28;;;27.09;49.33
63779;BME280;49923;55.970;37.516;2022-07-25T10:01:04;98841.34;;;26.68;50.34
63779;BME280;49923;55.970;37.516;2022-07-25T10:03:52;98835.72;;;27.80;49.26
63779;BME280;49923;55.970;37.516;2022-07-25T10:06:41;98844.19;;;26.81;49.61
63779;BME280;49923;55.970;37.516;2022-07-25T10:09:14;98844.59;;;26.40;49.33
63779;BME280;49923;55.970;37.516;2022-07-25T10:14:29;98825.63;;;27.17;49.88
63779;BME280;49923;55.970;37.516;2022-07-25T10:16:55;98831.34;;;26.99;48.34
63779;BME280;49923;55.970;37.516;2022-07-25T10:19:45;98829.25;;;27.75;47.09
63779;BME280;49923;55.970;37.516;2022-07-25T10:22:13;98828.56;;;27.37;49.81
63779;BME280;49923;55.970;37.516;2022-07-25T10:24:44;98827.00;;;27.27;48.72
63779;BME280;49923;55.970;37.516;2022-07-25T10:27:13;98833.28;;;27.05;49.20
63779;BME280;49923;55.970;37.516;2022-07-25T10:29:41;98829.38;;;27.88;48.30
63779;BME280;49923;55.970;37.516;2022-07-25T10:32:08;98829.88;;;27.91;46.39
63779;BME280;49923;55.970;37.516;2022-07-25T10:34:35;98823.94;;;28.17;47.11
63779;BME280;49923;55.970;37.516;2022-07-25T10:37:14;98824.41;;;28.21;45.52
63779;BME280;49923;55.970;37.516;2022-07-25T10:39:42;98829.41;;;28.09;46.60
63779;BME280;49923;55.970;37.516;2022-07-25T10:42:13;98827.13;;;27.19;46.78
63779;BME280;49923;55.970;37.516;2022-07-25T10:44:52;98826.47;;;26.88;48.60
63779;BME280;49923;55.970;37.516;2022-07-25T10:47:22;98824.72;;;26.95;49.41
63779;BME280;49923;55.970;37.516;2022-07-25T10:49:56;98824.97;;;27.59;48.33
63779;BME280;49923;55.970;37.516;2022-07-25T10:52:27;98820.00;;;27.92;48.05
63779;BME280;49923;55.970;37.516;2022-07-25T10:54:55;98824.16;;;26.47;51.71
63779;BME280;49923;55.970;37.516;2022-07-25T10:57:22;98821.75;;;26.38;51.57
63779;BME280;49923;55.970;37.516;2022-07-25T10:59:48;98825.81;;;26.86;51.56
63779;BME280;49923;55.970;37.516;2022-07-25T11:02:14;98817.81;;;26.48;50.14
63779;BME280;49923;55.970;37.516;2022-07-25T11:04:42;98818.53;;;27.39;48.95
63779;BME280;49923;55.970;37.516;2022-07-25T11:07:10;98828.97;;;27.84;48.84
63779;BME280;49923;55.970;37.516;2022-07-25T11:09:39;98815.31;;;27.14;48.63
63779;BME280;49923;55.970;37.516;2022-07-25T11:12:06;98815.88;;;26.42;51.10
63779;BME280;49923;55.970;37.516;2022-07-25T11:14:38;98817.34;;;26.22;51.65
63779;BME280;49923;55.970;37.516;2022-07-25T11:17:15;98815.78;;;26.88;49.60
63779;BME280;49923;55.970;37.516;2022-07-25T11:19:52;98813.41;;;27.94;46.64
63779;BME280;49923;55.970;37.516;2022-07-25T11:22:18;98800.09;;;28.43;47.55
63779;BME280;49923;55.970;37.516;2022-07-25T11:24:46;98811.53;;;28.31;47.54
63779;BME280;49923;55.970;37.516;2022-07-25T11:27:20;98804.78;;;26.83;48.99
63779;BME280;49923;55.970;37.516;2022-07-25T11:29:46;98805.34;;;27.37;47.98
63779;BME280;49923;55.970;37.516;2022-07-25T11:32:12;98804.28;;;27.67;48.73
63779;BME280;49923;55.970;37.516;2022-07-25T11:34:46;98800.75;;;27.31;47.86
63779;BME280;49923;55.970;37.516;2022-07-25T11:37:13;98798.63;;;26.68;49.38
63779;BME280;49923;55.970;37.516;2022-07-25T11:39:41;98801.03;;;26.17;50.18
63779;BME280;49923;55.970;37.516;2022-07-25T11:42:13;98802.75;;;26.56;50.57
63779;BME280;49923;55.970;37.516;2022-07-25T11:47:28;98797.53;;;27.06;48.94
63779;BME280;49923;55.970;37.516;2022-07-25T11:50:00;98798.81;;;27.10;49.02
63779;BME280;49923;55.970;37.516;2022-07-25T11:52:29;98803.75;;;27.57;48.01
63779;BME280;49923;55.970;37.516;2022-07-25T11:57:35;98793.50;;;28.18;46.34
63779;BME280;49923;55.970;37.516;2022-07-25T12:00:07;98798.63;;;27.98;47.99
63779;BME280;49923;55.970;37.516;2022-07-25T12:02:34;98801.47;;;27.25;46.84
63779;BME280;49923;55.970;37.516;2022-07-25T12:05:09;98794.56;;;28.02;45.97
63779;BME280;49923;55.970;37.516;2022-07-25T12:10:05;98806.91;;;27.82;46.30
63779;BME280;49923;55.970;37.516;2022-07-25T12:15:11;98795.25;;;27.68;48.55
63779;BME280;49923;55.970;37.516;2022-07-25T12:17:39;98784.97;;;28.36;48.22
63779;BME280;49923;55.970;37.516;2022-07-25T12:20:17;98787.41;;;28.31;46.47
63779;BME280;49923;55.970;37.516;2022-07-25T12:22:46;98781.44;;;28.07;45.98
63779;BME280;49923;55.970;37.516;2022-07-25T12:25:12;98777.19;;;27.98;49.70
63779;BME280;49923;55.970;37.516;2022-07-25T12:27:39;98772.34;;;27.30;46.95
63779;BME280;49923;55.970;37.516;2022-07-25T12:30:06;98765.03;;;27.75;48.42
63779;BME280;49923;55.970;37.516;2022-07-25T12:32:33;98775.72;;;27.53;47.42
63779;BME280;49923;55.970;37.516;2022-07-25T12:35:00;98775.34;;;27.42;46.67
63779;BME280;49923;55.970;37.516;2022-07-25T12:37:26;98766.81;;;28.10;44.91
63779;BME280;49923;55.970;37.516;2022-07-25T12:39:53;98758.69;;;29.08;45.42
63779;BME280;49923;55.970;37.516;2022-07-25T12:42:19;98759.13;;;28.49;48.87
63779;BME280;49923;55.970;37.516;2022-07-25T12:44:45;98759.00;;;27.87;47.90
63779;BME280;49923;55.970;37.516;2022-07-25T12:47:11;98759.06;;;27.94;48.12
63779;BME280;49923;55.970;37.516;2022-07-25T12:49:37;98768.59;;;27.82;47.18
63779;BME280;49923;55.970;37.516;2022-07-25T12:52:03;98766.69;;;27.54;48.70
63779;BME280;49923;55.970;37.516;2022-07-25T12:54:29;98767.69;;;27.03;48.34
63779;BME280;49923;55.970;37.516;2022-07-25T12:56:55;98766.22;;;27.15;47.69
63779;BME280;49923;55.970;37.516;2022-07-25T12:59:21;98769.25;;;27.84;48.44
63779;BME280;49923;55.970;37.516;2022-07-25T13:01:48;98766.06;;;27.38;48.25
63779;BME280;49923;55.970;37.516;2022-07-25T13:04:14;98767.34;;;27.56;49.28
63779;BME280;49923;55.970;37.516;2022-07-25T13:06:40;98770.81;;;27.57;48.70